• Join FlightAware (Why Join?)
  • Login
  • US Flag 
09:34AM EST


 

Airport Tracker/Info


-or-


 

Live Flight TrackerFlight Track Log ✈ UCA4838 ✈ 15-Jun-2014 ✈ KROC - KEWR

Flight Track Log - Related Links

Times and Time Zones

All times are in EDT time to prevent confusion due to time zone crossing. See the UCA4838 flight status page for this flight to view local times or setup timezone preferences in your user account.

Time Position Orientation Groundspeed Altitude Reporting Facility
EDT Latitude Longitude Course Direction KTS MPH feet Rate Location/Type
06:19AM 43.1042 -77.6897 205° Southwest 124 143 1,100  Level Cleveland Center
06:19AM 43.0786 -77.7061 205° Southwest 150 173 2,000 1,140 Climbing Cleveland Center
06:20AM 43.0522 -77.6528 124° Southeast 187 215 3,100 840 Climbing Cleveland Center
06:21AM 43.0497 -77.6458 116° Southeast 179 206 3,100 1,140 Level Cleveland Center
06:22AM 43.0275 -77.5775 114° Southeast 192 221 4,600 1,380 Climbing Cleveland Center
06:23AM 43.0031 -77.5081 116° Southeast 197 227 6,000 1,320 Climbing Cleveland Center
06:24AM 42.9789 -77.4378 115° Southeast 200 230 7,300 1,200 Climbing Cleveland Center
06:25AM 42.9525 -77.3636 116° Southeast 212 244 8,500 1,140 Climbing Cleveland Center
06:26AM 42.9258 -77.2869 115° Southeast 219 252 9,700 1,140 Climbing Cleveland Center
06:27AM 42.8986 -77.2083 115° Southeast 225 259 10,900 1,140 Climbing Cleveland Center
06:28AM 42.8706 -77.1311 116° Southeast 226 260 12,000 1,020 Climbing Cleveland Center
06:29AM 42.8439 -77.0528 115° Southeast 226 260 13,000 480 Climbing Cleveland Center
06:30AM 42.8114 -76.9647 117° Southeast 253 291 13,000  Level Cleveland Center
06:31AM 42.7697 -76.8733 122° Southeast 277 319 13,000  Level Cleveland Center
06:32AM 42.7272 -76.7767 121° Southeast 290 334 13,000  Level Cleveland Center
06:33AM 42.6831 -76.6758 121° Southeast 290 334 13,000  Level Cleveland Center
06:34AM 42.6347 -76.5681 121° Southeast 293 337 13,000  Level Cleveland Center
06:35AM 42.5917 -76.4722 121° Southeast 293 337 13,000  Level Cleveland Center
06:36AM 42.5497 -76.3761 121° Southeast 294 338 13,000  Level Cleveland Center
06:37AM 42.5039 -76.2789 123° Southeast 301 346 13,000  Level Boston Center
06:38AM 42.4600 -76.1800 121° Southeast 300 345 13,000  Level Boston Center
06:39AM 42.4164 -76.0833 121° Southeast 300 345 13,000  Level Boston Center
06:40AM 42.3731 -75.9883 122° Southeast 300 345 13,000  Level Boston Center
06:41AM 42.3281 -75.8917 122° Southeast 301 346 13,000  Level Boston Center
06:42AM 42.2847 -75.7961 121° Southeast 301 346 13,000  Level Cleveland Center
06:43AM 42.2361 -75.6886 121° Southeast 301 346 13,000  Level Boston Center
06:44AM 42.1908 -75.5931 123° Southeast 302 348 13,000  Level Boston Center
06:45AM 42.1467 -75.4969 122° Southeast 302 348 13,000  Level Boston Center
06:46AM 42.1017 -75.3994 122° Southeast 303 349 13,000  Level Boston Center
06:47AM 42.0581 -75.3042 122° Southeast 302 348 13,000 -60 Level Boston Center
06:48AM 42.0200 -75.2019 117° Southeast 303 349 12,900 -60 Descending Boston Center
06:49AM 41.9769 -75.0908 118° Southeast 305 351 12,900  Level Boston Center
06:50AM 41.9358 -74.9828 117° Southeast 304 350 12,900 -300 Level Boston Center
06:51AM 41.8817 -74.8944 129° Southeast 318 366 12,400 -960 Descending Boston Center
06:52AM 41.8172 -74.8094 135° Southeast 325 374 11,000 -1,440 Descending Boston Center
06:53AM 41.7561 -74.7253 134° Southeast 316 364 9,600 -1,380 Descending Boston Center
06:54AM 41.6969 -74.6456 135° Southeast 305 351 8,300 -1,260 Descending Boston Center
06:55AM 41.6381 -74.5681 135° Southeast 300 345 7,100 -1,140 Descending Boston Center
06:56AM 41.5536 -74.5669 179° South 288 331 6,100 -540 Descending Boston Center
06:57AM 41.4761 -74.5797 187° South 285 328 6,100  Level Boston Center
06:58AM 41.4000 -74.5933 188° South 280 322 6,100 -60 Level Boston Center
06:59AM 41.3264 -74.6242 197° South 280 322 6,000 -60 Descending Boston Center
07:00AM 41.2519 -74.6522 196° South 279 321 6,000  Level Boston Center
07:01AM 41.1717 -74.6575 183° South 280 322 6,000 -60 Level Boston Center
07:02AM 41.0967 -74.6411 171° South 274 315 5,900 -60 Descending Boston Center
07:03AM 41.0203 -74.6228 170° South 276 318 5,900  Level Boston Center
07:04AM 40.9586 -74.6044 167° South 276 318 5,900  Level Boston Center
07:05AM 40.8836 -74.5828 168° South 276 318 5,900 -480 Level Boston Center
07:06AM 40.7833 -74.5500 166° South 291 335 5,000 -600 Descending New York TRACON
07:07AM 40.7167 -74.5167 159° South 280 322 4,700 -720 Descending New York TRACON
07:08AM 40.6667 -74.4500 135° Southeast 275 316 3,700 -960 Descending New York TRACON
07:09AM 40.6000 -74.3833 143° Southeast 238 274 2,900 -600 Descending New York TRACON
07:10AM 40.5667 -74.3333 131° Southeast 210 242 2,500 -420 Descending New York TRACON
07:11AM 40.5333 -74.2833 131° Southeast 188 216 2,100 -240 Descending New York TRACON
07:12AM 40.5667 -74.2500 37° Northeast 147 169 2,100 -180 Level New York TRACON
07:13AM 40.6000 -74.2167 37° Northeast 146 168 1,800 -540 Descending New York TRACON
07:14AM 40.6333 -74.2000 21° North 135 155 1,100 -720 Descending New York TRACON
07:15AM 40.6667 -74.1833 21° North 118 136 400 -720 Descending New York TRACON